Time;durP1;ratioP1;P1;durP2;ratioP2;P2;SDS_P1;SDS_P2;PMS_P1;PMS_P2;Temp;Humidity;BMP_temperature;BMP_pressure;BME280_temperature;BME280_humidity;BME280_pressure;Samples;Min_cycle;Max_cycle;Signal;HPM_P1;HPM_P2
2021/07/01 00:00:27;;;;;;;;;;;13.80;99.90;;;;;;5027741;28;20044;-77
2021/07/01 00:02:53;;;;;;;28.52;14.02;;;13.70;99.90;;;;;;5031636;28;19956;-80
2021/07/01 00:05:21;;;;;;;34.88;14.77;;;13.70;99.90;;;;;;5017043;28;20068;-79
2021/07/01 00:07:47;;;;;;;30.90;15.05;;;13.70;99.90;;;;;;5032603;28;20507;-77
2021/07/01 00:10:19;;;;;;;30.90;16.00;;;13.70;99.90;;;;;;5024796;28;20038;-77
2021/07/01 00:12:46;;;;;;;29.38;15.45;;;13.80;99.90;;;;;;5027319;28;20360;-80
2021/07/01 00:15:17;;;;;;;35.13;15.57;;;13.80;99.90;;;;;;5026181;28;20125;-78
2021/07/01 00:17:44;;;;;;;33.75;16.13;;;13.80;99.90;;;;;;5025264;28;20124;-79
2021/07/01 00:20:11;;;;;;;32.22;14.70;;;13.80;99.90;;;;;;5013717;28;20101;-80
2021/07/01 00:22:37;;;;;;;40.45;15.77;;;13.80;99.90;;;;;;5024628;28;20037;-79
2021/07/01 00:25:05;;;;;;;43.78;17.02;;;13.80;99.90;;;;;;5023005;28;20037;-78
2021/07/01 00:27:31;;;;;;;36.38;15.77;;;13.80;99.90;;;;;;5022975;28;20056;-79
2021/07/01 00:29:57;;;;;;;41.00;18.83;;;13.80;99.90;;;;;;5012139;28;20119;-78
2021/07/01 00:32:23;;;;;;;40.65;17.83;;;13.80;99.90;;;;;;5024764;28;20095;-78
2021/07/01 00:34:49;;;;;;;;;;;13.80;99.90;;;;;;5013408;28;20038;-77
2021/07/01 00:37:15;;;;;;;39.83;17.25;;;13.80;99.90;;;;;;5032318;28;19921;-79
2021/07/01 00:39:41;;;;;;;32.28;17.42;;;13.70;99.90;;;;;;5023305;28;20488;-77
2021/07/01 00:42:07;;;;;;;;;;;13.70;99.90;;;;;;5016882;28;20038;-78
2021/07/01 00:44:33;;;;;;;27.98;14.90;;;13.70;99.90;;;;;;5012981;28;19991;-78
2021/07/01 00:46:59;;;;;;;;;;;13.70;99.90;;;;;;5024790;28;20034;-77
2021/07/01 00:49:24;;;;;;;28.50;15.10;;;13.60;99.90;;;;;;5025415;28;19974;-78
2021/07/01 00:51:51;;;;;;;;;;;13.60;99.90;;;;;;5032441;28;20056;-78
2021/07/01 00:54:17;;;;;;;30.73;14.90;;;13.50;99.90;;;;;;5020115;28;19999;-76
2021/07/01 00:56:42;;;;;;;;;;;13.50;99.90;;;;;;5011299;28;20037;-77
2021/07/01 00:59:09;;;;;;;30.13;14.73;;;13.50;99.90;;;;;;5025452;28;20345;-78
2021/07/01 01:01:35;;;;;;;28.52;15.90;;;13.50;99.90;;;;;;5015174;28;20069;-77
2021/07/01 01:04:02;;;;;;;27.27;15.65;;;13.50;99.90;;;;;;5013872;28;20467;-76
2021/07/01 01:06:27;;;;;;;;;;;13.50;99.90;;;;;;5022991;28;20041;-78
2021/07/01 01:08:55;;;;;;;31.75;15.23;;;13.50;99.90;;;;;;5031823;28;19923;-78
2021/07/01 01:11:24;;;;;;;29.10;15.20;;;13.50;99.90;;;;;;5030665;28;20092;-76
2021/07/01 01:13:51;;;;;;;32.17;15.52;;;13.50;99.90;;;;;;5013282;28;20037;-76
2021/07/01 01:16:17;;;;;;;25.95;14.85;;;13.50;99.90;;;;;;5017280;28;20057;-76
2021/07/01 01:18:45;;;;;;;35.13;17.38;;;13.50;99.90;;;;;;5031220;28;20049;-76
2021/07/01 01:21:12;;;;;;;33.63;16.38;;;13.50;99.90;;;;;;5032504;28;20087;-76
2021/07/01 01:23:38;;;;;;;34.00;17.17;;;13.50;99.90;;;;;;5021191;28;20042;-76
2021/07/01 01:26:04;;;;;;;;;;;13.50;99.90;;;;;;5024846;28;20037;-77
2021/07/01 01:28:30;;;;;;;28.17;15.65;;;13.50;99.90;;;;;;5022819;28;19918;-78
2021/07/01 01:30:57;;;;;;;24.88;14.57;;;13.50;99.90;;;;;;5015692;28;20042;-77
2021/07/01 01:33:25;;;;;;;31.15;15.25;;;13.50;99.90;;;;;;5027913;28;20072;-77
2021/07/01 01:35:51;;;;;;;32.85;15.95;;;13.50;99.90;;;;;;5030958;28;20411;-78
2021/07/01 01:38:17;;;;;;;;;;;13.60;99.90;;;;;;5022057;28;20038;-78
2021/07/01 01:40:44;;;;;;;32.55;16.63;;;13.60;99.90;;;;;;5025961;28;19983;-79
2021/07/01 01:43:13;;;;;;;34.13;18.02;;;13.50;99.90;;;;;;5024944;28;20408;-79
2021/07/01 01:45:40;;;;;;;34.03;17.05;;;13.60;99.90;;;;;;5015117;28;20030;-78
2021/07/01 01:48:06;;;;;;;35.65;18.00;;;13.60;99.90;;;;;;5020470;28;20030;-78
2021/07/01 01:50:33;;;;;;;40.10;18.90;;;13.60;99.90;;;;;;4994102;28;20038;-79
2021/07/01 01:52:59;;;;;;;34.42;17.83;;;13.60;99.90;;;;;;5029415;28;20487;-78
2021/07/01 01:55:25;;;;;;;37.22;19.13;;;13.70;99.90;;;;;;5012814;28;20071;-77
2021/07/01 01:57:52;;;;;;;44.10;20.00;;;13.70;99.90;;;;;;5028398;28;20144;-77
2021/07/01 02:00:21;;;;;;;40.97;19.38;;;13.70;99.90;;;;;;5026214;28;20052;-78
2021/07/01 02:02:47;;;;;;;40.97;19.98;;;13.80;99.90;;;;;;5016403;28;20059;-77
2021/07/01 02:05:15;;;;;;;46.20;20.58;;;13.80;99.90;;;;;;5015282;28;20033;-77
2021/07/01 02:07:41;;;;;;;40.95;21.10;;;13.80;99.90;;;;;;5000551;28;20034;-77
2021/07/01 02:10:09;;;;;;;42.83;20.83;;;13.90;99.90;;;;;;5025951;28;20689;-77
2021/07/01 02:12:35;;;;;;;43.10;20.80;;;13.90;99.90;;;;;;5025415;28;20065;-78
2021/07/01 02:15:12;;;;;;;50.00;22.90;;;13.90;99.90;;;;;;5012411;28;20065;-79
2021/07/01 02:17:39;;;;;;;40.75;20.33;;;13.90;99.90;;;;;;5011491;28;20042;-80
2021/07/01 02:20:07;;;;;;;44.15;22.42;;;13.90;99.90;;;;;;5017579;28;20075;-77
2021/07/01 02:22:33;;;;;;;42.30;21.25;;;13.90;99.90;;;;;;5018879;28;20070;-78
2021/07/01 02:24:59;;;;;;;36.92;20.85;;;13.90;99.90;;;;;;5017787;28;20037;-78
2021/07/01 02:27:24;;;;;;;;;;;14.00;99.90;;;;;;5017296;28;20044;-79
2021/07/01 02:29:50;;;;;;;48.30;22.35;;;14.00;99.90;;;;;;5015840;28;19916;-79
2021/07/01 02:32:16;;;;;;;53.40;23.33;;;14.00;99.90;;;;;;5017101;28;20594;-78
2021/07/01 02:34:44;;;;;;;43.80;22.30;;;14.00;99.90;;;;;;5025188;28;20034;-77
2021/07/01 02:37:11;;;;;;;49.72;21.73;;;14.00;99.90;;;;;;5029549;28;20543;-80
2021/07/01 02:39:38;;;;;;;49.55;23.02;;;14.00;99.90;;;;;;5024973;28;20095;-79
2021/07/01 02:42:04;;;;;;;51.97;23.00;;;14.00;99.90;;;;;;5028769;28;20041;-78
2021/07/01 02:44:30;;;;;;;46.55;21.25;;;14.10;99.90;;;;;;5026471;28;20038;-77
2021/07/01 02:46:57;;;;;;;47.20;23.27;;;14.10;99.90;;;;;;5017202;28;20497;-78
2021/07/01 02:49:23;;;;;;;52.55;22.75;;;14.10;99.90;;;;;;5012934;28;20039;-79
2021/07/01 02:51:48;;;;;;;52.65;24.45;;;14.10;99.90;;;;;;5014831;28;20046;-78
2021/07/01 02:54:15;;;;;;;59.03;23.40;;;14.10;99.90;;;;;;5020389;28;20052;-79
2021/07/01 02:56:41;;;;;;;49.20;22.92;;;14.10;99.90;;;;;;5022188;28;20033;-79
2021/07/01 02:59:15;;;;;;;48.10;24.90;;;14.10;99.90;;;;;;5015365;28;20146;-78
2021/07/01 03:01:45;;;;;;;49.20;24.17;;;14.10;99.90;;;;;;5024449;28;20061;-78
2021/07/01 03:04:11;;;;;;;51.72;24.52;;;14.10;99.90;;;;;;5014543;28;20088;-79
2021/07/01 03:06:38;;;;;;;53.25;25.25;;;14.10;99.90;;;;;;5018891;28;20479;-79
2021/07/01 03:09:06;;;;;;;60.05;26.17;;;14.10;99.90;;;;;;5028511;28;20041;-79
2021/07/01 03:11:36;;;;;;;67.03;25.60;;;14.10;99.90;;;;;;5011089;28;20045;-78
2021/07/01 03:14:03;;;;;;;59.67;25.77;;;14.10;99.90;;;;;;5019166;28;20049;-77
2021/07/01 03:16:38;;;;;;;;;;;14.10;99.90;;;;;;5012916;28;20041;-78
2021/07/01 03:19:04;;;;;;;62.30;25.42;;;14.10;99.90;;;;;;5018388;28;19972;-79
2021/07/01 03:21:34;;;;;;;60.00;25.25;;;14.10;99.90;;;;;;5025855;28;20063;-78
2021/07/01 03:24:00;;;;;;;56.72;26.67;;;14.00;99.90;;;;;;5028199;28;20475;-77
2021/07/01 03:26:26;;;;;;;61.88;26.15;;;14.10;99.90;;;;;;5031343;28;20095;-78
2021/07/01 03:28:52;;;;;;;55.10;26.77;;;14.00;99.90;;;;;;5023183;28;20088;-77
2021/07/01 03:31:17;;;;;;;53.03;25.88;;;14.00;99.90;;;;;;5016203;28;20121;-79
2021/07/01 03:33:43;;;;;;;;;;;14.10;99.90;;;;;;5025077;28;20088;-78
2021/07/01 03:36:09;;;;;;;46.97;23.38;;;14.00;99.90;;;;;;5025552;28;19981;-78
2021/07/01 03:38:36;;;;;;;53.08;24.38;;;14.10;99.90;;;;;;5022299;28;20033;-77
2021/07/01 03:41:06;;;;;;;57.85;23.92;;;14.10;99.90;;;;;;5035405;28;20100;-79
2021/07/01 03:43:35;;;;;;;49.60;23.17;;;14.10;99.90;;;;;;5017612;28;20029;-79
2021/07/01 03:46:01;;;;;;;57.70;24.83;;;14.10;99.90;;;;;;5026326;28;20038;-79
2021/07/01 03:48:27;;;;;;;47.92;22.73;;;14.10;99.90;;;;;;5014476;28;20042;-80
2021/07/01 03:50:52;;;;;;;53.08;23.33;;;14.10;99.90;;;;;;5021345;28;20049;-80
2021/07/01 03:53:18;;;;;;;55.33;22.38;;;14.10;99.90;;;;;;5014075;28;20435;-80
2021/07/01 03:55:44;;;;;;;53.03;23.20;;;14.10;99.90;;;;;;5023014;28;20033;-78
2021/07/01 03:58:11;;;;;;;49.95;23.80;;;14.10;99.90;;;;;;5019762;28;20096;-79
2021/07/01 04:00:37;;;;;;;55.40;26.60;;;14.10;99.90;;;;;;5022658;28;20079;-80
2021/07/01 04:03:03;;;;;;;50.78;24.23;;;14.10;99.90;;;;;;5031567;28;20418;-78
2021/07/01 04:05:29;;;;;;;53.72;23.95;;;14.10;99.90;;;;;;5021291;28;20112;-79
2021/07/01 04:07:54;;;;;;;48.42;23.17;;;14.10;99.90;;;;;;5018627;28;20480;-79
2021/07/01 04:10:20;;;;;;;;;;;14.10;99.90;;;;;;5025617;28;20042;-80
2021/07/01 04:12:47;;;;;;;50.65;22.35;;;14.10;99.90;;;;;;5019151;28;19928;-80
2021/07/01 04:15:13;;;;;;;49.78;23.20;;;14.20;99.90;;;;;;5017572;28;20029;-81
2021/07/01 04:17:39;;;;;;;49.13;23.23;;;14.20;99.90;;;;;;5030299;28;20176;-80
2021/07/01 04:20:06;;;;;;;47.38;22.40;;;14.20;99.90;;;;;;5020705;28;20497;-80
2021/07/01 04:22:33;;;;;;;48.13;22.33;;;14.30;99.90;;;;;;5031430;28;20057;-80
2021/07/01 04:24:59;;;;;;;43.25;21.48;;;14.20;99.90;;;;;;5032787;28;20072;-79
2021/07/01 04:27:25;;;;;;;44.83;23.52;;;14.20;99.90;;;;;;5024266;28;20057;-80
2021/07/01 04:29:51;;;;;;;;;;;14.30;99.90;;;;;;5007796;28;20038;-78
2021/07/01 04:32:17;;;;;;;46.30;21.90;;;14.20;99.90;;;;;;5018823;28;19924;-79
2021/07/01 04:34:43;;;;;;;44.35;21.77;;;14.30;99.90;;;;;;5014426;28;20069;-79
2021/07/01 04:37:08;;;;;;;;;;;14.20;99.90;;;;;;5024337;28;20376;-79
2021/07/01 04:39:34;;;;;;;44.95;23.38;;;14.30;99.90;;;;;;5019496;28;19921;-79
2021/07/01 04:42:00;;;;;;;;;;;14.30;99.90;;;;;;5017845;28;20045;-79
2021/07/01 04:44:27;;;;;;;48.67;22.75;;;14.30;99.90;;;;;;5018487;28;19960;-79
2021/07/01 04:46:53;;;;;;;51.42;23.35;;;14.30;99.90;;;;;;5030153;28;20064;-78
2021/07/01 04:49:19;;;;;;;51.03;23.13;;;14.30;99.90;;;;;;5016059;28;20054;-79
2021/07/01 04:51:44;;;;;;;45.58;23.23;;;14.30;99.90;;;;;;5030152;28;20156;-78
2021/07/01 04:54:11;;;;;;;;;;;14.30;99.90;;;;;;5017096;28;20145;-78
2021/07/01 04:56:44;;;;;;;54.25;25.25;;;14.30;99.90;;;;;;5026032;28;19917;-78
2021/07/01 04:59:13;;;;;;;53.00;22.58;;;14.30;99.90;;;;;;5016979;28;20032;-80
2021/07/01 05:01:39;;;;;;;55.03;23.98;;;14.30;99.90;;;;;;5025083;28;20059;-80
2021/07/01 05:04:08;;;;;;;;;;;14.40;99.90;;;;;;5025730;28;20050;-80
2021/07/01 05:06:35;;;;;;;53.50;24.45;;;14.40;99.90;;;;;;5028785;28;20358;-79
2021/07/01 05:09:01;;;;;;;51.95;24.15;;;14.40;99.90;;;;;;4996139;28;20042;-79
2021/07/01 05:11:26;;;;;;;52.97;24.88;;;14.40;99.90;;;;;;5030779;28;20111;-79
2021/07/01 05:13:52;;;;;;;55.28;22.42;;;14.40;99.90;;;;;;5032644;28;20041;-79
2021/07/01 05:16:18;;;;;;;51.85;24.00;;;14.40;99.90;;;;;;5026455;28;20034;-81
2021/07/01 05:18:44;;;;;;;;;;;14.40;99.90;;;;;;5016798;28;20041;-79
2021/07/01 05:21:09;;;;;;;45.00;24.20;;;14.40;99.90;;;;;;5022562;28;19921;-78
2021/07/01 05:23:36;;;;;;;45.53;22.83;;;14.40;99.90;;;;;;5012205;28;20471;-80
2021/07/01 05:26:02;;;;;;;52.97;24.52;;;14.50;99.90;;;;;;5022875;28;20152;-79
2021/07/01 05:28:28;;;;;;;49.75;22.13;;;14.50;99.90;;;;;;5020338;28;20040;-79
2021/07/01 05:30:54;;;;;;;61.33;24.52;;;14.50;99.90;;;;;;5027978;28;20056;-79
2021/07/01 05:33:19;;;;;;;46.92;22.50;;;14.50;99.90;;;;;;5023062;28;20072;-78
2021/07/01 05:35:45;;;;;;;49.15;22.67;;;14.50;99.90;;;;;;5027483;28;20476;-80
2021/07/01 05:38:11;;;;;;;48.58;23.15;;;14.50;99.90;;;;;;5029347;28;20045;-80
2021/07/01 05:40:37;;;;;;;;;;;14.50;99.90;;;;;;5013070;28;20069;-79
2021/07/01 05:43:03;;;;;;;49.40;22.27;;;14.50;99.90;;;;;;5013794;28;19972;-79
2021/07/01 05:45:29;;;;;;;44.10;23.10;;;14.50;99.90;;;;;;5032021;28;20045;-79
2021/07/01 05:47:55;;;;;;;49.75;23.08;;;14.60;99.90;;;;;;5019850;28;20483;-79
2021/07/01 05:50:21;;;;;;;44.70;22.40;;;14.50;99.90;;;;;;5030915;28;20041;-78
2021/07/01 05:52:52;;;;;;;47.90;22.15;;;14.60;99.90;;;;;;5029778;28;20041;-80
2021/07/01 05:55:18;;;;;;;54.10;23.05;;;14.60;99.90;;;;;;5025737;28;20123;-80
2021/07/01 05:57:44;;;;;;;53.80;23.48;;;14.60;99.90;;;;;;5032686;28;20069;-79
2021/07/01 06:00:11;;;;;;;44.28;21.60;;;14.70;99.90;;;;;;5028875;28;20041;-80
2021/07/01 06:02:40;;;;;;;51.17;24.77;;;14.70;99.90;;;;;;5013051;28;20113;-80
2021/07/01 06:05:07;;;;;;;52.15;23.63;;;14.70;99.90;;;;;;5022543;28;20847;-79
2021/07/01 06:07:33;;;;;;;52.88;24.80;;;14.80;99.90;;;;;;5021478;28;20065;-77
2021/07/01 06:10:02;;;;;;;51.28;24.35;;;14.80;99.90;;;;;;5022703;28;20045;-80
2021/07/01 06:12:33;;;;;;;58.20;27.63;;;14.80;99.90;;;;;;5022124;28;20459;-80
2021/07/01 06:15:00;;;;;;;54.92;24.65;;;14.80;99.90;;;;;;5024554;28;20478;-79
2021/07/01 06:17:28;;;;;;;55.50;25.73;;;14.80;99.90;;;;;;5032827;28;20048;-79
2021/07/01 06:19:54;;;;;;;49.80;24.00;;;14.80;99.90;;;;;;5031672;28;20391;-80
2021/07/01 06:22:21;;;;;;;54.78;25.75;;;14.80;99.90;;;;;;5028599;28;20037;-80
2021/07/01 06:24:56;;;;;;;50.90;25.13;;;14.90;99.90;;;;;;5016523;28;20096;-79
2021/07/01 06:27:37;;;;;;;58.53;25.52;;;14.90;99.90;;;;;;5021838;28;20038;-79
2021/07/01 06:30:14;;;;;;;51.85;23.85;;;14.90;99.90;;;;;;5011881;28;20165;-78
2021/07/01 06:32:44;;;;;;;52.28;24.05;;;15.00;99.90;;;;;;5018433;28;20048;-79
2021/07/01 06:35:15;;;;;;;54.30;24.27;;;15.00;99.90;;;;;;5027937;28;20101;-79
2021/07/01 06:37:42;;;;;;;52.97;25.30;;;15.10;99.90;;;;;;5030933;28;20045;-79
2021/07/01 06:40:10;;;;;;;48.83;23.27;;;15.20;99.90;;;;;;5024914;28;20033;-78
2021/07/01 06:42:44;;;;;;;54.17;25.05;;;15.20;99.90;;;;;;5017859;28;20045;-80
2021/07/01 06:45:11;;;;;;;57.13;24.77;;;15.30;99.90;;;;;;5027133;28;20048;-79
2021/07/01 06:47:38;;;;;;;51.20;26.00;;;15.30;99.90;;;;;;5024754;28;20034;-77
2021/07/01 06:50:10;;;;;;;48.90;23.30;;;15.40;99.90;;;;;;5013648;28;20044;-78
2021/07/01 06:52:36;;;;;;;55.67;24.23;;;15.40;99.90;;;;;;5016511;28;20498;-78
2021/07/01 06:55:02;;;;;;;56.45;25.02;;;15.40;99.90;;;;;;5029516;28;20041;-78
2021/07/01 06:57:28;;;;;;;51.28;24.27;;;15.50;99.90;;;;;;5024701;28;20448;-78
2021/07/01 06:59:54;;;;;;;50.47;23.90;;;15.50;99.90;;;;;;5026358;28;20499;-79
2021/07/01 07:02:20;;;;;;;;;;;15.50;99.90;;;;;;5015126;28;20403;-78
2021/07/01 07:04:46;;;;;;;55.20;26.15;;;15.50;99.90;;;;;;5027346;28;19917;-78
2021/07/01 07:07:12;;;;;;;55.45;25.30;;;15.50;99.90;;;;;;5030244;28;20096;-80
2021/07/01 07:09:39;;;;;;;64.70;25.23;;;15.50;99.90;;;;;;5031675;28;20045;-80
2021/07/01 07:12:05;;;;;;;51.38;24.23;;;15.50;99.90;;;;;;5020015;28;20041;-81
2021/07/01 07:14:31;;;;;;;55.05;27.20;;;15.50;99.90;;;;;;5034444;28;20368;-79
2021/07/01 07:16:58;;;;;;;51.20;24.83;;;15.60;99.90;;;;;;5028423;28;20083;-80
2021/07/01 07:19:27;;;;;;;55.30;25.80;;;15.70;99.90;;;;;;5032796;28;20041;-80
2021/07/01 07:21:54;;;;;;;45.33;24.23;;;15.70;99.90;;;;;;5032936;28;20492;-79
2021/07/01 07:24:20;;;;;;;57.47;25.27;;;15.70;99.90;;;;;;5027362;28;20038;-80
2021/07/01 07:26:52;;;;;;;49.17;25.27;;;15.70;99.90;;;;;;5017610;28;20046;-80
2021/07/01 07:29:20;;;;;;;60.08;25.45;;;15.80;99.90;;;;;;5034444;28;20053;-79
2021/07/01 07:31:47;;;;;;;54.67;26.00;;;15.80;99.90;;;;;;5032411;28;20430;-80
2021/07/01 07:34:13;;;;;;;56.22;26.10;;;15.90;99.90;;;;;;5017198;28;20092;-81
2021/07/01 07:36:39;;;;;;;52.50;25.20;;;15.90;99.90;;;;;;5030902;28;20033;-81
2021/07/01 07:39:06;;;;;;;51.17;24.27;;;15.90;99.90;;;;;;5016439;28;20480;-79
2021/07/01 07:41:32;;;;;;;56.67;27.65;;;15.90;99.90;;;;;;5019219;28;20033;-80
2021/07/01 07:43:58;;;;;;;51.47;25.67;;;15.90;99.90;;;;;;5027472;28;20190;-79
2021/07/01 07:46:26;;;;;;;58.15;26.52;;;16.00;99.90;;;;;;5028980;28;20049;-79
2021/07/01 07:48:52;;;;;;;56.33;26.92;;;16.00;99.90;;;;;;5021978;28;20092;-79
2021/07/01 07:51:23;;;;;;;51.65;26.13;;;16.00;99.90;;;;;;5020336;28;20549;-79
2021/07/01 07:53:55;;;;;;;50.30;25.67;;;16.00;99.90;;;;;;5029192;28;20084;-80
2021/07/01 07:56:36;;;;;;;57.30;27.65;;;16.10;99.90;;;;;;5025256;28;20041;-78
2021/07/01 07:59:04;;;;;;;52.30;26.25;;;16.10;99.90;;;;;;5033175;28;20542;-78
2021/07/01 08:01:37;;;;;;;58.78;26.58;;;16.20;99.90;;;;;;5034858;28;20084;-79
2021/07/01 08:04:06;;;;;;;54.55;26.80;;;16.20;99.90;;;;;;5039549;28;20389;-81
2021/07/01 08:06:33;;;;;;;57.25;25.92;;;16.30;99.90;;;;;;5031232;28;20056;-79
2021/07/01 08:09:04;;;;;;;48.92;24.83;;;16.30;99.90;;;;;;5032353;28;20438;-78
2021/07/01 08:11:33;;;;;;;50.67;26.52;;;16.40;99.90;;;;;;5027864;28;20464;-82
2021/07/01 08:14:01;;;;;;;58.90;25.88;;;16.40;99.90;;;;;;5031943;28;20088;-81
2021/07/01 08:16:27;;;;;;;54.22;26.40;;;16.40;99.90;;;;;;5040451;28;20541;-80
2021/07/01 08:18:53;;;;;;;50.10;24.67;;;16.40;99.90;;;;;;5025029;28;20042;-80
2021/07/01 08:21:20;;;;;;;55.53;25.10;;;16.40;99.90;;;;;;5022358;28;20045;-80
2021/07/01 08:23:46;;;;;;;51.13;27.15;;;16.50;99.90;;;;;;5008797;28;20419;-79
2021/07/01 08:26:13;;;;;;;59.65;26.08;;;16.50;99.90;;;;;;5027188;28;20037;-80
2021/07/01 08:28:40;;;;;;;59.30;26.58;;;16.50;99.90;;;;;;5030828;28;20044;-81
2021/07/01 08:31:14;;;;;;;61.45;27.70;;;16.50;99.90;;;;;;5030917;28;20406;-80
2021/07/01 08:33:43;;;;;;;46.83;24.83;;;16.50;99.90;;;;;;5027956;28;20029;-81
2021/07/01 08:36:20;;;;;;;49.92;24.83;;;16.60;99.90;;;;;;5029344;28;20116;-81
2021/07/01 08:38:49;;;;;;;53.28;25.17;;;16.70;99.90;;;;;;5032143;28;20084;-80
2021/07/01 08:41:23;;;;;;;50.58;25.05;;;16.60;99.90;;;;;;5022848;28;20453;-81
2021/07/01 08:43:54;;;;;;;50.53;26.05;;;16.60;99.90;;;;;;5016428;28;20145;-79
2021/07/01 08:46:28;;;;;;;45.03;24.33;;;16.70;99.90;;;;;;5020532;28;20029;-80
2021/07/01 08:49:03;;;;;;;45.35;24.98;;;16.90;99.90;;;;;;5029943;28;20041;-80
2021/07/01 08:51:43;;;;;;;45.17;23.88;;;17.00;99.90;;;;;;5023293;28;20041;-81
2021/07/01 08:54:26;;;;;;;46.10;24.80;;;17.10;99.90;;;;;;5018712;28;20450;-81
2021/07/01 08:56:54;;;;;;;46.05;25.00;;;17.20;99.90;;;;;;5027868;28;20038;-80
2021/07/01 08:59:23;;;;;;;37.17;23.27;;;17.20;99.90;;;;;;5018470;28;20040;-80
2021/07/01 09:01:58;;;;;;;40.28;23.65;;;17.30;99.90;;;;;;5032793;28;20498;-81
2021/07/01 09:04:28;;;;;;;46.05;25.13;;;17.30;99.90;;;;;;5032962;28;20126;-81
2021/07/01 09:07:03;;;;;;;47.08;24.45;;;17.30;99.90;;;;;;5026122;28;20044;-79
2021/07/01 09:09:34;;;;;;;47.72;23.88;;;17.40;99.90;;;;;;5012716;28;20038;-79
2021/07/01 09:12:03;;;;;;;46.53;24.75;;;17.50;99.90;;;;;;5027273;28;20395;-82
2021/07/01 09:14:29;;;;;;;45.53;24.75;;;17.50;99.90;;;;;;5017943;28;20034;-80
2021/07/01 09:16:55;;;;;;;48.35;24.55;;;17.50;99.90;;;;;;5013136;28;20113;-79
2021/07/01 09:19:25;;;;;;;;;;;17.60;99.90;;;;;;5013313;28;20044;-79
2021/07/01 09:21:51;;;;;;;44.08;24.05;;;17.60;99.90;;;;;;5026558;28;20368;-78
2021/07/01 09:24:18;;;;;;;42.55;23.45;;;17.80;99.90;;;;;;5018030;28;20061;-80
2021/07/01 09:26:47;;;;;;;48.80;23.13;;;17.80;99.90;;;;;;5022442;28;20130;-79
2021/07/01 09:29:14;;;;;;;35.20;22.30;;;17.80;99.90;;;;;;5014619;28;20049;-80
2021/07/01 09:31:40;;;;;;;;;;;17.80;99.90;;;;;;5022890;28;20115;-78
2021/07/01 09:34:06;;;;;;;38.40;21.63;;;17.80;99.90;;;;;;5031560;28;19917;-79
2021/07/01 09:36:32;;;;;;;;;;;17.90;99.90;;;;;;5030802;28;20041;-79
2021/07/01 09:39:01;;;;;;;38.53;22.63;;;18.00;99.90;;;;;;5026762;28;19967;-79
2021/07/01 09:41:27;;;;;;;38.58;21.63;;;18.10;99.90;;;;;;5019626;28;20092;-79
2021/07/01 09:43:55;;;;;;;;;;;18.20;99.90;;;;;;5011300;28;20042;-79
2021/07/01 09:46:24;;;;;;;34.28;20.77;;;18.20;99.90;;;;;;5012126;28;19917;-80
2021/07/01 09:48:51;;;;;;;35.17;19.75;;;18.40;99.90;;;;;;5029983;28;20086;-78
2021/07/01 09:51:19;;;;;;;31.25;20.75;;;18.70;99.90;;;;;;5031620;28;20060;-78
2021/07/01 09:53:54;;;;;;;29.77;19.88;;;18.90;99.90;;;;;;5017813;28;20037;-78
2021/07/01 09:56:36;;;;;;;33.47;20.52;;;19.00;99.90;;;;;;5025681;28;20038;-78
2021/07/01 09:59:06;;;;;;;32.90;19.98;;;19.00;99.90;;;;;;5027467;28;20037;-79
2021/07/01 10:01:38;;;;;;;33.00;20.02;;;19.10;99.90;;;;;;5026210;28;20080;-78
2021/07/01 10:04:09;;;;;;;34.90;19.90;;;19.20;99.90;;;;;;5025113;28;20087;-79
2021/07/01 10:06:35;;;;;;;34.38;20.33;;;19.30;99.90;;;;;;5025304;28;20038;-79
2021/07/01 10:09:01;;;;;;;;;;;19.40;99.90;;;;;;5030004;28;20037;-80
2021/07/01 10:11:35;;;;;;;30.60;19.20;;;19.30;99.90;;;;;;5049820;28;19928;-80
2021/07/01 10:14:09;;;;;;;31.65;20.45;;;19.30;99.90;;;;;;5024745;28;20041;-78
2021/07/01 10:16:36;;;;;;;32.95;21.10;;;19.30;99.90;;;;;;5025635;28;20045;-78
2021/07/01 10:19:05;;;;;;;33.83;20.00;;;19.10;99.90;;;;;;5020772;28;20488;-80
2021/07/01 10:21:32;;;;;;;31.52;20.00;;;19.10;99.90;;;;;;5027118;28;20044;-79
2021/07/01 10:24:18;;;;;;;29.58;19.52;;;19.20;99.90;;;;;;5027670;28;20137;-80
2021/07/01 10:26:49;;;;;;;30.00;18.48;;;19.30;99.90;;;;;;5025302;28;20165;-80
2021/07/01 10:29:17;;;;;;;26.15;17.02;;;19.40;99.90;;;;;;5017064;28;20037;-80
2021/07/01 10:31:59;;;;;;;27.88;19.13;;;19.30;99.90;;;;;;5029690;28;20056;-79
2021/07/01 10:34:30;;;;;;;28.55;19.05;;;19.20;99.90;;;;;;5017021;28;20095;-79
2021/07/01 10:37:21;;;;;;;25.83;17.23;;;19.10;99.90;;;;;;5034249;28;20471;-81
2021/07/01 10:39:48;;;;;;;29.10;19.58;;;18.80;99.90;;;;;;5028604;28;20494;-80
2021/07/01 10:42:15;;;;;;;30.25;18.98;;;18.70;99.90;;;;;;5019007;28;20120;-80
2021/07/01 10:44:41;;;;;;;31.35;20.20;;;18.60;99.90;;;;;;5027445;28;20029;-81
2021/07/01 10:47:30;;;;;;;30.50;19.08;;;18.60;99.90;;;;;;5034552;28;20065;-80
2021/07/01 10:49:58;;;;;;;25.38;18.88;;;18.60;99.90;;;;;;5034273;28;20046;-82
2021/07/01 10:52:37;;;;;;;29.70;17.80;;;18.70;99.90;;;;;;5027519;28;20049;-78
2021/07/01 10:55:04;;;;;;;29.45;19.17;;;18.70;99.90;;;;;;5030584;28;20037;-81
2021/07/01 10:57:30;;;;;;;31.85;19.00;;;18.70;99.90;;;;;;5020359;28;20129;-80
2021/07/01 10:59:58;;;;;;;27.15;19.83;;;18.80;99.90;;;;;;5034241;28;20085;-80
2021/07/01 11:02:29;;;;;;;30.65;19.15;;;18.80;99.90;;;;;;5022305;28;20935;-80
2021/07/01 11:04:58;;;;;;;30.80;19.92;;;18.80;99.90;;;;;;5031776;28;20033;-79
2021/07/01 11:07:26;;;;;;;30.23;17.92;;;18.70;99.90;;;;;;5048481;28;20038;-78
2021/07/01 11:09:56;;;;;;;28.80;19.35;;;18.60;99.90;;;;;;5029618;28;20091;-79
2021/07/01 11:12:25;;;;;;;30.55;20.90;;;18.50;99.90;;;;;;5032924;28;20045;-82
2021/07/01 11:14:55;;;;;;;30.13;20.30;;;18.60;99.90;;;;;;5052811;28;20046;-79
2021/07/01 11:17:37;;;;;;;29.00;19.92;;;18.70;99.90;;;;;;5029969;28;20125;-79
2021/07/01 11:20:19;;;;;;;28.65;19.83;;;19.10;99.90;;;;;;5032859;28;20029;-78
2021/07/01 11:22:54;;;;;;;33.45;19.63;;;19.50;99.90;;;;;;5034486;28;20041;-80
2021/07/01 11:25:34;;;;;;;28.98;18.98;;;19.70;99.90;;;;;;5024054;28;20046;-78
2021/07/01 11:28:32;;;;;;;28.17;17.80;;;19.60;99.90;;;;;;5033999;28;20042;-79
2021/07/01 11:31:02;;;;;;;25.67;18.67;;;19.40;99.90;;;;;;5012877;28;20057;-81
2021/07/01 11:33:29;;;;;;;28.25;19.52;;;19.50;99.90;;;;;;5019246;28;20041;-78
2021/07/01 11:36:15;;;;;;;28.10;18.20;;;19.40;99.90;;;;;;5028596;28;20060;-80
2021/07/01 11:38:42;;;;;;;27.08;18.10;;;19.30;99.90;;;;;;5029644;28;20065;-79
2021/07/01 11:41:08;;;;;;;25.77;17.27;;;19.30;99.90;;;;;;5026603;28;20047;-80
2021/07/01 11:43:36;;;;;;;26.50;16.88;;;19.30;99.90;;;;;;5021521;28;20041;-81
2021/07/01 11:46:03;;;;;;;25.25;17.50;;;19.40;99.90;;;;;;5032453;28;20494;-79
2021/07/01 11:48:30;;;;;;;25.52;17.75;;;19.40;99.90;;;;;;5031976;28;20034;-78
2021/07/01 11:50:59;;;;;;;27.40;17.17;;;19.40;99.90;;;;;;5033431;28;20038;-83
2021/07/01 11:53:26;;;;;;;26.38;17.33;;;19.50;99.90;;;;;;5021845;28;20125;-80
2021/07/01 11:55:56;;;;;;;24.73;17.60;;;19.70;99.90;;;;;;5036593;28;20037;-82
2021/07/01 11:58:22;;;;;;;24.67;16.42;;;19.80;99.90;;;;;;5024542;28;20042;-81
2021/07/01 12:00:48;;;;;;;19.92;14.65;;;20.00;99.90;;;;;;5029624;28;20046;-79
2021/07/01 12:03:17;;;;;;;23.77;16.17;;;20.30;99.90;;;;;;5037733;28;20513;-82
2021/07/01 12:05:54;;;;;;;22.10;14.68;;;20.70;99.90;;;;;;5039407;28;20387;-80
2021/07/01 12:08:20;;;;;;;20.15;15.63;;;21.00;99.90;;;;;;5039866;28;20073;-80
2021/07/01 12:10:46;;;;;;;22.55;15.65;;;21.10;99.90;;;;;;5027424;28;20422;-83
2021/07/01 12:13:31;;;;;;;21.88;15.70;;;21.20;99.90;;;;;;5025290;28;20037;-78
2021/07/01 12:16:09;;;;;;;20.15;14.27;;;21.40;99.90;;;;;;5021966;28;20037;-79
2021/07/01 12:18:44;;;;;;;21.48;14.85;;;21.60;99.90;;;;;;5026983;28;20045;-78
2021/07/01 12:21:30;;;;;;;19.75;14.65;;;21.90;99.90;;;;;;5026378;28;20109;-81
2021/07/01 12:24:03;;;;;;;19.27;12.73;;;22.10;99.90;;;;;;5027059;28;20044;-79
2021/07/01 12:26:43;;;;;;;17.10;13.38;;;22.30;99.90;;;;;;5027595;28;20030;-79
2021/07/01 12:29:39;;;;;;;19.98;13.10;;;22.60;99.90;;;;;;5025704;28;20049;-82
2021/07/01 12:32:27;;;;;;;21.65;14.63;;;22.30;99.90;;;;;;5024396;28;20048;-81
2021/07/01 12:34:54;;;;;;;20.25;14.13;;;22.10;99.90;;;;;;5029412;28;20084;-83
2021/07/01 12:37:21;;;;;;;17.70;13.00;;;22.10;99.90;;;;;;5031028;28;20053;-79
2021/07/01 12:39:48;;;;;;;24.25;13.88;;;21.90;99.90;;;;;;5030934;28;20067;-79
2021/07/01 12:42:14;;;;;;;19.90;14.85;;;21.70;99.90;;;;;;5020838;28;20135;-80